Time;durP1;ratioP1;P1;durP2;ratioP2;P2;SDS_P1;SDS_P2;PMS_P1;PMS_P2;Temp;Humidity;BMP_temperature;BMP_pressure;BME280_temperature;BME280_humidity;BME280_pressure;Samples;Min_cycle;Max_cycle;Signal;HPM_P1;HPM_P2
2023/10/14 00:00:47;;;;;;;14.25;5.45;;;21.20;78.10;;;;;;5048438;28;20021;-45
2023/10/14 00:03:24;;;;;;;14.75;6.22;;;21.20;78.40;;;;;;5050261;28;20523;-49
2023/10/14 00:05:49;;;;;;;11.25;5.45;;;21.20;78.30;;;;;;5045708;28;20080;-47
2023/10/14 00:08:15;;;;;;;11.88;5.57;;;21.20;78.00;;;;;;5050336;28;20021;-45
2023/10/14 00:10:41;;;;;;;12.45;5.30;;;21.20;78.10;;;;;;5047938;28;20025;-46
2023/10/14 00:13:12;;;;;;;10.77;5.07;;;21.10;77.80;;;;;;5051248;28;20025;-45
2023/10/14 00:15:41;;;;;;;11.32;5.38;;;21.20;77.90;;;;;;5048694;28;20048;-48
2023/10/14 00:18:07;;;;;;;15.00;5.03;;;21.20;78.00;;;;;;5041186;28;20424;-45
2023/10/14 00:20:35;;;;;;;12.70;5.65;;;21.20;77.90;;;;;;5042423;28;20033;-48
2023/10/14 00:23:05;;;;;;;10.25;5.25;;;21.20;77.80;;;;;;5050918;28;20025;-46
2023/10/14 00:25:34;;;;;;;11.60;5.43;;;21.10;78.50;;;;;;5046740;28;20392;-46
2023/10/14 00:28:12;;;;;;;14.75;5.63;;;21.10;78.10;;;;;;5050555;28;20029;-46
2023/10/14 00:30:38;;;;;;;11.82;5.43;;;21.10;77.90;;;;;;5046524;28;20028;-45
2023/10/14 00:33:04;;;;;;;19.30;5.78;;;21.10;77.80;;;;;;5038827;28;20111;-46
2023/10/14 00:35:30;;;;;;;13.88;5.10;;;21.10;78.20;;;;;;5049955;28;20445;-45
2023/10/14 00:38:02;;;;;;;10.30;4.95;;;21.10;78.30;;;;;;5053421;28;20031;-46
2023/10/14 00:40:28;;;;;;;11.35;5.45;;;21.10;78.40;;;;;;5051866;28;20025;-45
2023/10/14 00:42:56;;;;;;;10.52;4.75;;;21.10;78.50;;;;;;5048821;28;20044;-45
2023/10/14 00:45:22;;;;;;;12.70;5.40;;;21.10;78.10;;;;;;5046190;28;20104;-46
2023/10/14 00:47:49;;;;;;;9.55;5.05;;;21.10;78.00;;;;;;5040012;28;20100;-46
2023/10/14 00:52:54;;;;;;;9.82;5.05;;;21.20;78.10;;;;;;5052607;28;20017;-45
2023/10/14 00:55:24;;;;;;;9.85;4.53;;;21.10;78.30;;;;;;5042316;28;20017;-48
2023/10/14 00:57:54;;;;;;;12.27;5.22;;;21.10;78.20;;;;;;5050619;28;20505;-47
2023/10/14 01:00:37;;;;;;;10.23;5.22;;;21.10;78.10;;;;;;5042600;28;20249;-44
2023/10/14 01:03:09;;;;;;;8.40;4.57;;;21.10;78.10;;;;;;5074767;23;20056;-54
2023/10/14 01:05:36;;;;;;;11.18;5.18;;;21.10;78.10;;;;;;5050649;28;20033;-56
2023/10/14 01:08:07;;;;;;;15.05;5.38;;;21.10;77.90;;;;;;5052854;28;20036;-55
2023/10/14 01:10:34;;;;;;;8.48;4.63;;;21.10;78.00;;;;;;5035350;28;20408;-54
2023/10/14 01:13:06;;;;;;;8.90;4.75;;;21.10;77.90;;;;;;5034384;28;20025;-57
2023/10/14 01:15:33;;;;;;;10.98;4.68;;;21.10;78.00;;;;;;5022671;28;20382;-56
2023/10/14 01:18:01;;;;;;;10.13;5.05;;;21.10;77.70;;;;;;5032284;28;20036;-57
2023/10/14 01:20:35;;;;;;;9.82;4.65;;;21.10;77.90;;;;;;5031601;28;20072;-57
2023/10/14 01:23:07;;;;;;;12.90;4.82;;;21.10;78.00;;;;;;5015407;28;20056;-57
2023/10/14 01:25:34;;;;;;;8.95;4.63;;;21.10;77.80;;;;;;5031639;28;20063;-56
2023/10/14 01:28:06;;;;;;;10.98;4.90;;;21.10;78.00;;;;;;5018972;28;20037;-56
2023/10/14 01:30:38;;;;;;;12.07;4.75;;;21.10;77.70;;;;;;5006421;28;20565;-57
2023/10/14 01:33:16;;;;;;;15.30;5.50;;;21.10;77.70;;;;;;5031568;28;20029;-55
2023/10/14 01:35:45;;;;;;;7.22;4.10;;;21.10;77.80;;;;;;5031375;28;20093;-57
2023/10/14 01:38:11;;;;;;;11.68;4.50;;;21.10;78.10;;;;;;5013743;28;20112;-57
2023/10/14 01:40:40;;;;;;;11.27;4.70;;;21.10;78.00;;;;;;5014724;28;20100;-58
2023/10/14 01:43:06;;;;;;;7.63;4.40;;;21.10;78.00;;;;;;5024451;28;20025;-57
2023/10/14 01:45:40;;;;;;;7.63;4.93;;;21.10;78.10;;;;;;5020522;28;20528;-57
2023/10/14 01:50:54;;;;;;;9.18;5.03;;;21.10;77.60;;;;;;5031695;28;20025;-57
2023/10/14 01:53:28;;;;;;;12.38;4.85;;;21.10;77.80;;;;;;5027428;28;20043;-57
2023/10/14 01:55:58;;;;;;;10.00;5.07;;;21.10;77.60;;;;;;5031407;28;20032;-57
2023/10/14 01:58:32;;;;;;;11.23;4.78;;;21.10;77.50;;;;;;5014783;28;20037;-57
2023/10/14 02:03:54;;;;;;;7.43;4.43;;;21.10;77.70;;;;;;5031021;28;20151;-57
2023/10/14 02:06:32;;;;;;;9.40;4.78;;;21.10;77.60;;;;;;5031264;28;20512;-57
2023/10/14 02:09:04;;;;;;;9.57;4.27;;;21.10;77.80;;;;;;5014377;28;20026;-58
2023/10/14 02:11:33;;;;;;;7.80;4.38;;;21.10;77.60;;;;;;5031986;28;20017;-57
2023/10/14 02:14:07;;;;;;;10.10;4.78;;;21.10;77.60;;;;;;5030288;28;20429;-57
2023/10/14 02:16:44;;;;;;;13.05;4.78;;;21.10;78.00;;;;;;5013103;28;20037;-57
2023/10/14 02:20:06;;;;;;;9.43;4.43;;;21.10;77.40;;;;;;5022361;28;20029;-57
2023/10/14 02:21:57;;;;;;;8.48;4.57;;;21.10;78.60;;;;;;5002894;28;20037;-56
2023/10/14 02:24:25;;;;;;;10.57;4.85;;;21.10;77.80;;;;;;5030287;28;20044;-56
2023/10/14 02:26:52;;;;;;;8.30;4.30;;;21.10;77.30;;;;;;5003961;28;20026;-57
2023/10/14 02:29:19;;;;;;;9.25;4.68;;;21.10;77.20;;;;;;5018821;28;20022;-57
2023/10/14 02:31:45;;;;;;;8.00;4.32;;;21.10;78.90;;;;;;5026177;28;20021;-57
2023/10/14 02:34:14;;;;;;;8.23;4.05;;;21.10;77.50;;;;;;5031181;28;20029;-56
2023/10/14 02:36:50;;;;;;;;;;;21.10;77.40;;;;;;5037182;28;20061;-57
2023/10/14 02:39:17;;;;;;;8.75;4.65;;;21.10;77.50;;;;;;5030950;28;19909;-57
2023/10/14 02:41:57;;;;;;;13.23;4.20;;;21.20;77.60;;;;;;5035188;28;20029;-57
2023/10/14 02:44:32;;;;;;;9.18;4.38;;;21.10;77.30;;;;;;5007285;28;20036;-57
2023/10/14 02:47:08;;;;;;;11.30;4.63;;;21.20;77.60;;;;;;5030378;28;20440;-56
2023/10/14 02:49:40;;;;;;;8.73;4.45;;;21.20;77.60;;;;;;5024594;28;20026;-58
2023/10/14 02:52:11;;;;;;;7.55;4.15;;;21.10;78.00;;;;;;5015752;28;20057;-56
2023/10/14 02:54:44;;;;;;;9.13;4.35;;;21.10;76.90;;;;;;5022596;28;20025;-56
2023/10/14 02:57:13;;;;;;;10.07;3.97;;;21.10;77.20;;;;;;5020876;28;20155;-55
2023/10/14 03:02:15;;;;;;;9.10;4.38;;;21.20;77.00;;;;;;5020687;28;20045;-57
2023/10/14 03:04:54;;;;;;;7.00;4.25;;;21.20;77.20;;;;;;5030548;28;20102;-57
2023/10/14 03:07:28;;;;;;;11.00;4.63;;;21.20;77.80;;;;;;5028475;28;20030;-57
2023/10/14 03:12:48;;;;;;;8.68;4.03;;;21.10;77.50;;;;;;5026223;28;20512;-56
2023/10/14 03:15:22;;;;;;;8.23;4.47;;;21.10;77.60;;;;;;5030488;28;20248;-56
2023/10/14 03:17:58;;;;;;;10.00;3.80;;;21.10;77.40;;;;;;5030679;28;20515;-56
2023/10/14 03:22:55;;;;;;;8.73;3.78;;;21.10;77.30;;;;;;5025213;28;20084;-57
2023/10/14 03:25:23;;;;;;;8.82;4.20;;;21.10;77.60;;;;;;5022063;28;20037;-56
2023/10/14 03:30:58;;;;;;;8.82;4.43;;;21.10;77.50;;;;;;4949410;29;21441;-57
2023/10/14 03:33:29;;;;;;;7.70;4.03;;;21.10;77.00;;;;;;4942636;29;20133;-56
2023/10/14 03:36:03;;;;;;;12.27;4.25;;;21.10;78.00;;;;;;4949881;29;20078;-57
2023/10/14 03:41:21;;;;;;;7.63;4.15;;;21.10;78.30;;;;;;4947901;29;20464;-57
2023/10/14 03:43:58;;;;;;;11.32;4.32;;;21.10;77.90;;;;;;4946126;29;20031;-57
2023/10/14 03:46:42;;;;;;;9.85;4.13;;;21.10;77.80;;;;;;4950066;29;20043;-56
2023/10/14 03:49:20;;;;;;;7.15;4.15;;;21.10;77.80;;;;;;4954229;28;20535;-58
2023/10/14 03:51:49;;;;;;;8.48;4.15;;;21.10;77.70;;;;;;4950345;29;20023;-58
2023/10/14 03:54:23;;;;;;;10.80;4.50;;;21.10;77.60;;;;;;4950425;29;20114;-57
2023/10/14 03:56:50;;;;;;;11.55;4.05;;;21.10;77.40;;;;;;4949451;29;20039;-56
2023/10/14 03:59:26;;;;;;;9.05;4.47;;;21.10;77.30;;;;;;4949905;29;20047;-58
2023/10/14 04:02:07;;;;;;;8.40;3.90;;;21.10;77.20;;;;;;4945868;29;20031;-57
2023/10/14 04:04:33;;;;;;;9.13;4.65;;;21.00;77.30;;;;;;4944712;28;20611;-57
2023/10/14 04:09:38;;;;;;;7.90;4.43;;;21.10;77.10;;;;;;5021515;28;20099;-57
2023/10/14 04:12:09;;;;;;;11.50;4.65;;;21.10;77.10;;;;;;5034132;28;20076;-57
2023/10/14 04:14:36;;;;;;;9.70;4.75;;;21.00;77.00;;;;;;5033255;28;20022;-57
2023/10/14 04:17:19;;;;;;;6.72;4.30;;;21.10;77.10;;;;;;5033128;28;20022;-57
2023/10/14 04:19:53;;;;;;;10.10;4.50;;;21.10;77.10;;;;;;5034129;28;20036;-57
2023/10/14 04:22:32;;;;;;;10.25;4.38;;;21.10;76.90;;;;;;5033949;28;20496;-57
2023/10/14 04:27:45;;;;;;;8.68;4.60;;;21.00;76.80;;;;;;5033536;28;20079;-57
2023/10/14 04:30:21;;;;;;;8.32;4.10;;;21.10;76.90;;;;;;5033318;28;20018;-57
2023/10/14 04:35:22;;;;;;;12.70;4.40;;;21.00;76.80;;;;;;5033325;28;20026;-57
2023/10/14 04:37:53;;;;;;;9.05;4.30;;;21.10;76.80;;;;;;5033550;28;20260;-57
2023/10/14 04:45:52;;;;;;;10.18;4.85;;;21.00;76.70;;;;;;5032527;28;20037;-57
2023/10/14 04:48:26;;;;;;;10.65;4.78;;;21.00;76.60;;;;;;5032869;28;20105;-57
2023/10/14 04:50:58;;;;;;;12.13;5.18;;;21.00;76.60;;;;;;5032922;28;20035;-57
2023/10/14 04:53:27;;;;;;;8.55;4.47;;;21.00;76.60;;;;;;5014078;28;20030;-56
2023/10/14 04:55:54;;;;;;;13.63;4.93;;;21.00;76.60;;;;;;5028497;28;20033;-57
2023/10/14 04:58:32;;;;;;;8.45;4.88;;;21.00;76.50;;;;;;5033234;28;20022;-57
2023/10/14 05:01:00;;;;;;;13.43;5.07;;;21.00;76.50;;;;;;5030860;28;20048;-57
2023/10/14 05:03:34;;;;;;;8.52;4.55;;;21.00;76.40;;;;;;5031055;28;20029;-57
2023/10/14 05:11:35;;;;;;;11.10;5.40;;;21.10;76.30;;;;;;4953611;28;20063;-57
2023/10/14 05:14:08;;;;;;;13.15;5.40;;;21.10;76.20;;;;;;4952044;29;20039;-56
2023/10/14 05:16:53;;;;;;;13.40;5.45;;;21.10;76.40;;;;;;4951590;29;20388;-56
2023/10/14 05:19:24;;;;;;;14.18;5.32;;;21.10;76.50;;;;;;4954762;28;20039;-52
2023/10/14 05:22:05;;;;;;;15.63;5.65;;;21.10;76.40;;;;;;4961454;28;20046;-56
2023/10/14 05:24:31;;;;;;;16.17;5.80;;;21.10;76.30;;;;;;4945020;29;20687;-52
2023/10/14 05:27:01;;;;;;;15.25;5.03;;;21.10;76.30;;;;;;4950837;29;20554;-56
2023/10/14 05:29:28;;;;;;;13.25;5.32;;;21.10;76.30;;;;;;4953328;28;20031;-56
2023/10/14 05:32:10;;;;;;;10.43;4.97;;;21.10;76.30;;;;;;4953586;28;20126;-54
2023/10/14 05:34:37;;;;;;;11.88;5.10;;;21.10;76.30;;;;;;4951451;29;20028;-56
2023/10/14 05:37:07;;;;;;;11.77;5.22;;;21.10;76.30;;;;;;4952077;28;20042;-54
2023/10/14 05:39:37;;;;;;;10.25;5.03;;;21.10;76.30;;;;;;4960157;28;20035;-54
2023/10/14 05:42:16;;;;;;;13.55;5.65;;;21.10;76.30;;;;;;4936067;28;20451;-55
2023/10/14 05:44:48;;;;;;;12.20;4.97;;;21.10;76.40;;;;;;4956674;28;20061;-53
2023/10/14 05:47:19;;;;;;;10.75;5.07;;;21.10;76.30;;;;;;4977585;28;20063;-56
2023/10/14 05:49:46;;;;;;;12.73;5.03;;;21.10;76.40;;;;;;5031764;28;20041;-56
2023/10/14 05:52:12;;;;;;;9.77;4.85;;;21.10;76.30;;;;;;5031759;28;20056;-54
2023/10/14 05:54:40;;;;;;;10.98;5.30;;;21.10;76.30;;;;;;5026209;28;20381;-51
2023/10/14 05:57:08;;;;;;;10.40;4.50;;;21.10;76.10;;;;;;5001488;28;20038;-56
2023/10/14 05:59:38;;;;;;;8.43;3.95;;;21.10;76.10;;;;;;5021821;28;20021;-55
2023/10/14 06:02:08;;;;;;;10.50;4.55;;;21.10;76.00;;;;;;5031329;28;20451;-56
2023/10/14 06:04:39;;;;;;;;;;;21.10;75.90;;;;;;5031082;28;20525;-56
2023/10/14 06:07:09;;;;;;;9.25;4.00;;;21.10;75.90;;;;;;5031811;28;19921;-53
2023/10/14 06:09:36;;;;;;;11.50;4.57;;;21.10;75.70;;;;;;5031896;28;20022;-56
2023/10/14 06:12:06;;;;;;;7.82;4.20;;;21.10;75.80;;;;;;5031406;28;20030;-56
2023/10/14 06:14:33;;;;;;;8.23;3.78;;;21.10;75.70;;;;;;5027908;28;20044;-52
2023/10/14 06:16:59;;;;;;;5.90;3.60;;;21.00;75.60;;;;;;5027095;28;20104;-55
2023/10/14 06:19:25;;;;;;;13.55;4.10;;;21.00;75.50;;;;;;5024105;28;20033;-54
2023/10/14 06:21:51;;;;;;;10.13;3.80;;;21.00;76.20;;;;;;5024394;28;20037;-53
2023/10/14 06:24:17;;;;;;;7.00;3.83;;;21.00;75.50;;;;;;5030183;28;20033;-54
2023/10/14 06:26:43;;;;;;;6.00;3.47;;;21.10;75.40;;;;;;5030575;28;20029;-50
2023/10/14 06:29:09;;;;;;;6.28;3.33;;;21.00;75.20;;;;;;5029748;28;20053;-55
2023/10/14 06:31:40;;;;;;;6.20;3.10;;;21.00;75.10;;;;;;5024592;28;20555;-52
2023/10/14 06:34:09;;;;;;;7.60;3.78;;;21.00;75.00;;;;;;5030959;28;20014;-56
2023/10/14 06:36:35;;;;;;;8.57;3.30;;;21.00;75.10;;;;;;5031288;28;20026;-56
2023/10/14 06:39:13;;;;;;;7.55;3.33;;;21.00;75.10;;;;;;5035789;28;20451;-56
2023/10/14 06:41:45;;;;;;;7.47;3.25;;;21.00;74.90;;;;;;5025376;28;20044;-56
2023/10/14 06:44:15;;;;;;;6.57;3.17;;;21.00;74.90;;;;;;5013252;28;20108;-56
2023/10/14 06:46:44;;;;;;;7.78;3.33;;;21.00;74.80;;;;;;5029807;28;20028;-56
2023/10/14 06:49:13;;;;;;;7.22;3.15;;;21.00;74.80;;;;;;5029696;28;20036;-55
2023/10/14 06:51:43;;;;;;;6.35;3.20;;;21.00;74.80;;;;;;5023972;28;20022;-56
2023/10/14 06:54:09;;;;;;;;;;;21.00;74.70;;;;;;5031178;28;20547;-51
2023/10/14 06:56:36;;;;;;;9.63;3.63;;;21.00;74.60;;;;;;5030009;28;19916;-56
2023/10/14 06:59:02;;;;;;;7.10;3.33;;;21.00;74.60;;;;;;5030687;28;20060;-56
2023/10/14 07:01:31;;;;;;;7.47;3.13;;;21.00;74.70;;;;;;5044524;22;20445;-46
2023/10/14 07:03:57;;;;;;;6.60;2.67;;;21.00;74.50;;;;;;5049169;28;20057;-47
2023/10/14 07:06:23;;;;;;;5.18;2.60;;;21.00;74.50;;;;;;5049960;28;20025;-45
2023/10/14 07:08:50;;;;;;;4.97;2.70;;;21.00;74.30;;;;;;5051164;28;20068;-47
2023/10/14 07:11:16;;;;;;;4.50;2.47;;;21.00;74.30;;;;;;5050302;28;20509;-45
2023/10/14 07:13:42;;;;;;;6.35;2.92;;;21.00;74.20;;;;;;5050304;28;20021;-45
2023/10/14 07:16:08;;;;;;;5.35;2.90;;;21.00;74.30;;;;;;5050886;28;20051;-46
2023/10/14 07:18:37;;;;;;;6.05;2.30;;;21.00;74.10;;;;;;5051209;28;20033;-48
2023/10/14 07:21:08;;;;;;;5.83;2.60;;;21.00;74.10;;;;;;5046916;28;20033;-47
2023/10/14 07:23:34;;;;;;;8.18;3.38;;;21.00;74.20;;;;;;5049486;28;20087;-47
2023/10/14 07:26:13;;;;;;;8.07;2.67;;;21.00;74.10;;;;;;5049729;28;20480;-49
2023/10/14 07:28:42;;;;;;;6.97;2.78;;;21.00;74.00;;;;;;5044767;28;20021;-45
2023/10/14 07:31:12;;;;;;;6.55;2.42;;;21.00;74.10;;;;;;5047854;28;20071;-45
2023/10/14 07:33:39;;;;;;;5.18;2.60;;;21.00;74.20;;;;;;5049289;28;20056;-45
2023/10/14 07:36:06;;;;;;;7.20;2.85;;;21.00;74.20;;;;;;5036118;28;20030;-47
2023/10/14 07:38:35;;;;;;;4.55;2.60;;;21.00;74.10;;;;;;5050339;28;20025;-47
2023/10/14 07:41:01;;;;;;;5.90;2.60;;;21.00;74.00;;;;;;5038930;28;20046;-45
2023/10/14 07:43:27;;;;;;;3.97;2.28;;;21.00;74.10;;;;;;5050048;28;20025;-46
2023/10/14 07:45:53;;;;;;;5.05;2.60;;;21.00;74.00;;;;;;5048214;28;20056;-45
2023/10/14 07:48:22;;;;;;;4.70;2.50;;;21.00;74.00;;;;;;5053583;28;20064;-45
2023/10/14 07:50:48;;;;;;;6.55;2.50;;;21.00;73.70;;;;;;5053013;28;20020;-44
2023/10/14 07:53:22;;;;;;;5.22;2.42;;;21.00;73.60;;;;;;5054436;28;20549;-46
2023/10/14 07:55:50;;;;;;;4.60;2.55;;;21.00;73.60;;;;;;5052343;28;20551;-45
2023/10/14 07:58:23;;;;;;;6.22;2.40;;;21.00;73.70;;;;;;5053411;28;20055;-45
2023/10/14 08:00:50;;;;;;;7.78;2.65;;;21.00;73.70;;;;;;5049155;28;20401;-45
2023/10/14 08:03:18;;;;;;;5.32;2.80;;;21.00;73.60;;;;;;5047918;28;20029;-45
2023/10/14 08:05:48;;;;;;;6.63;2.63;;;21.00;73.60;;;;;;5053889;28;20403;-45
2023/10/14 08:08:14;;;;;;;5.80;2.30;;;21.10;73.60;;;;;;5051568;28;20539;-45
2023/10/14 08:10:42;;;;;;;5.22;2.25;;;21.10;73.60;;;;;;5040231;28;20108;-45
2023/10/14 08:13:09;;;;;;;4.30;2.28;;;21.10;73.60;;;;;;5051707;28;20539;-46
2023/10/14 08:15:36;;;;;;;6.00;2.30;;;21.10;73.50;;;;;;5054035;28;20049;-45
2023/10/14 08:18:04;;;;;;;9.35;2.70;;;21.10;73.40;;;;;;5054294;28;20025;-45
2023/10/14 08:20:31;;;;;;;5.72;2.40;;;21.10;73.40;;;;;;5054125;28;20025;-45
2023/10/14 08:22:58;;;;;;;5.80;2.58;;;21.10;73.50;;;;;;5045498;28;20029;-48
2023/10/14 08:25:28;;;;;;;7.93;2.97;;;21.10;73.50;;;;;;5052260;28;20081;-45
2023/10/14 08:27:57;;;;;;;9.90;2.88;;;21.10;73.50;;;;;;5054054;28;20028;-45
2023/10/14 08:30:24;;;;;;;6.63;2.83;;;21.10;72.50;;;;;;5053992;28;20025;-44
2023/10/14 08:32:53;;;;;;;9.75;2.90;;;21.10;73.00;;;;;;5046675;28;20021;-44
2023/10/14 08:35:19;;;;;;;11.40;2.83;;;21.20;73.90;;;;;;5052422;28;20104;-47
2023/10/14 08:37:52;;;;;;;8.93;3.10;;;21.20;74.30;;;;;;5053763;28;20104;-46
2023/10/14 08:40:20;;;;;;;10.60;2.90;;;21.30;75.00;;;;;;5048743;28;20051;-47
2023/10/14 08:42:49;;;;;;;16.60;3.13;;;21.40;74.30;;;;;;5053956;28;20100;-48
2023/10/14 08:45:22;;;;;;;22.85;3.90;;;21.40;74.60;;;;;;5053522;28;20021;-48
2023/10/14 08:47:52;;;;;;;21.27;3.40;;;21.40;75.00;;;;;;5045755;28;20457;-51
2023/10/14 08:50:24;;;;;;;15.73;4.00;;;21.40;75.80;;;;;;5051281;28;20029;-50
2023/10/14 08:52:56;;;;;;;14.20;3.30;;;21.50;76.30;;;;;;5044055;28;20029;-52
2023/10/14 08:55:22;;;;;;;16.30;3.30;;;21.60;76.00;;;;;;5052497;28;20032;-48
2023/10/14 08:57:50;;;;;;;23.30;3.50;;;21.50;74.60;;;;;;5053508;28;20410;-47
2023/10/14 09:00:23;;;;;;;19.88;3.90;;;21.50;75.00;;;;;;5052436;28;20102;-46
2023/10/14 09:02:51;;;;;;;19.10;3.22;;;21.40;74.90;;;;;;5053255;28;20408;-47
2023/10/14 09:05:18;;;;;;;12.77;2.80;;;21.40;75.10;;;;;;5053017;28;20388;-45
2023/10/14 09:07:45;;;;;;;13.95;3.08;;;21.40;74.90;;;;;;5053361;28;20554;-51
2023/10/14 09:10:12;;;;;;;14.45;2.83;;;21.40;74.50;;;;;;5053269;28;20024;-51
2023/10/14 09:12:39;;;;;;;12.85;2.88;;;21.40;75.10;;;;;;5053103;28;20314;-47
2023/10/14 09:15:05;;;;;;;22.50;3.17;;;21.40;74.70;;;;;;5052878;28;20029;-49
2023/10/14 09:17:31;;;;;;;15.52;3.13;;;21.40;75.80;;;;;;5053031;28;20033;-45
2023/10/14 09:19:57;;;;;;;17.67;2.83;;;21.40;76.10;;;;;;5053069;28;20087;-46
2023/10/14 09:22:25;;;;;;;15.82;3.35;;;21.40;75.00;;;;;;5052911;28;20035;-51
2023/10/14 09:24:53;;;;;;;14.60;3.92;;;21.40;75.90;;;;;;5052701;28;20029;-48
2023/10/14 09:27:20;;;;;;;22.00;3.53;;;21.40;77.60;;;;;;5052874;28;20035;-45
2023/10/14 09:29:46;;;;;;;18.83;4.38;;;21.50;80.00;;;;;;5052886;28;20025;-47
2023/10/14 09:32:13;;;;;;;14.80;3.22;;;21.60;82.50;;;;;;5052620;28;20047;-49
2023/10/14 09:34:41;;;;;;;10.18;2.80;;;21.50;80.20;;;;;;5052472;28;20024;-45
2023/10/14 09:37:13;;;;;;;19.83;3.42;;;21.50;76.40;;;;;;5052710;28;20037;-47
2023/10/14 09:39:44;;;;;;;13.30;2.97;;;21.40;79.70;;;;;;5052610;28;20029;-47
2023/10/14 09:42:11;;;;;;;18.48;2.92;;;21.30;77.00;;;;;;5052643;28;20119;-48
2023/10/14 09:44:43;;;;;;;13.32;3.00;;;21.20;76.20;;;;;;5052226;28;20035;-48
2023/10/14 09:47:22;;;;;;;16.17;3.30;;;21.20;74.60;;;;;;5052465;28;20497;-46
2023/10/14 09:49:51;;;;;;;16.15;3.25;;;21.20;72.90;;;;;;5052687;28;20021;-46
2023/10/14 09:52:18;;;;;;;12.48;2.53;;;21.10;71.80;;;;;;5052383;28;20056;-45
2023/10/14 09:54:49;;;;;;;12.52;2.63;;;21.10;72.60;;;;;;5050894;28;20136;-50
2023/10/14 09:57:16;;;;;;;13.70;2.65;;;21.00;69.50;;;;;;5052418;28;20025;-45
2023/10/14 09:59:42;;;;;;;11.15;2.60;;;21.10;68.40;;;;;;5052357;28;20036;-45
2023/10/14 10:02:09;;;;;;;13.77;2.88;;;21.10;69.50;;;;;;5052127;28;20025;-45
2023/10/14 10:04:42;;;;;;;11.55;2.65;;;21.10;69.60;;;;;;5052042;28;20057;-45
2023/10/14 10:07:41;;;;;;;11.27;2.78;;;21.20;69.00;;;;;;5051306;28;20029;-47
2023/10/14 10:10:14;;;;;;;12.35;2.50;;;21.10;68.80;;;;;;5052287;28;20079;-45
2023/10/14 10:12:42;;;;;;;12.65;2.90;;;21.10;68.40;;;;;;5052179;28;20033;-45
2023/10/14 10:15:09;;;;;;;14.43;2.42;;;21.10;68.70;;;;;;5051699;28;20048;-48
2023/10/14 10:17:37;;;;;;;11.02;2.40;;;21.10;65.50;;;;;;5052002;28;20095;-45
2023/10/14 10:20:16;;;;;;;9.55;2.35;;;21.10;65.40;;;;;;5051935;28;20100;-46
2023/10/14 10:22:50;;;;;;;14.65;3.35;;;21.00;62.30;;;;;;5051793;28;20496;-49
2023/10/14 10:25:17;;;;;;;17.85;3.17;;;21.00;61.20;;;;;;5051567;28;20116;-46
2023/10/14 10:27:45;;;;;;;15.38;2.90;;;21.00;63.90;;;;;;5051997;28;20027;-48
2023/10/14 10:30:16;;;;;;;15.50;3.00;;;21.00;63.30;;;;;;5051809;28;20087;-45
2023/10/14 10:32:46;;;;;;;17.60;3.03;;;21.00;61.20;;;;;;5051723;28;20104;-48
2023/10/14 10:35:16;;;;;;;14.52;2.78;;;21.00;64.40;;;;;;5051536;28;20028;-52
2023/10/14 10:37:55;;;;;;;18.00;3.63;;;21.10;61.60;;;;;;5052681;28;20025;-48
2023/10/14 10:40:27;;;;;;;13.45;2.55;;;21.00;62.60;;;;;;5051309;28;20074;-46
2023/10/14 10:42:58;;;;;;;15.00;2.83;;;21.00;63.80;;;;;;5051093;28;20033;-50
2023/10/14 10:45:31;;;;;;;14.20;3.30;;;21.00;63.40;;;;;;5051221;28;20029;-48
2023/10/14 10:48:03;;;;;;;12.27;2.42;;;21.00;64.10;;;;;;5051397;28;20220;-46
2023/10/14 10:50:36;;;;;;;12.57;2.70;;;21.00;64.50;;;;;;5051343;28;20550;-47
2023/10/14 10:53:08;;;;;;;12.73;2.97;;;21.00;65.30;;;;;;5051506;28;20432;-46
2023/10/14 10:55:38;;;;;;;11.60;2.95;;;21.00;64.60;;;;;;5051334;28;20082;-48
2023/10/14 10:58:06;;;;;;;8.15;2.50;;;21.00;64.50;;;;;;5051435;28;20029;-45
2023/10/14 11:00:32;;;;;;;10.82;2.30;;;21.00;65.40;;;;;;5051807;28;20032;-46
2023/10/14 11:03:00;;;;;;;13.02;2.65;;;21.00;65.70;;;;;;5051129;28;20064;-46
2023/10/14 11:05:27;;;;;;;8.43;2.40;;;21.00;65.40;;;;;;5051010;28;20083;-46
2023/10/14 11:07:53;;;;;;;13.23;2.95;;;21.10;65.50;;;;;;5050150;28;20025;-46
2023/10/14 11:10:42;;;;;;;11.75;2.55;;;21.00;66.20;;;;;;5051472;28;20028;-48
2023/10/14 11:13:12;;;;;;;12.13;2.67;;;21.00;66.10;;;;;;5033649;28;20075;-45
2023/10/14 11:15:39;;;;;;;;;;;21.10;66.20;;;;;;5051328;28;20025;-48
2023/10/14 11:18:05;;;;;;;11.25;2.30;;;21.10;66.20;;;;;;5052106;28;19909;-45
2023/10/14 11:20:40;;;;;;;11.70;2.65;;;21.10;66.30;;;;;;5054069;28;20056;-47
2023/10/14 11:23:09;;;;;;;9.55;1.95;;;21.10;66.20;;;;;;5054102;28;20060;-49
2023/10/14 11:26:04;;;;;;;10.23;2.33;;;21.00;66.30;;;;;;5054920;28;20400;-46
2023/10/14 11:28:30;;;;;;;10.18;2.50;;;21.10;66.00;;;;;;5054581;28;20280;-45
2023/10/14 11:30:57;;;;;;;10.85;2.33;;;21.10;66.20;;;;;;5055185;28;20021;-48
2023/10/14 11:33:25;;;;;;;10.13;2.53;;;21.10;66.50;;;;;;5055017;28;20431;-47
2023/10/14 11:35:51;;;;;;;10.25;2.20;;;21.10;66.10;;;;;;5054759;28;20048;-46
2023/10/14 11:38:16;;;;;;;9.35;2.40;;;21.10;66.20;;;;;;5054949;28;20033;-45
2023/10/14 11:40:50;;;;;;;11.13;2.50;;;21.10;66.10;;;;;;5054971;28;20139;-48
2023/10/14 11:43:17;;;;;;;11.15;2.67;;;21.10;66.10;;;;;;5054838;28;20090;-47
2023/10/14 11:45:43;;;;;;;10.95;2.65;;;21.10;65.80;;;;;;5054531;28;20037;-46
2023/10/14 11:48:28;;;;;;;10.77;2.60;;;21.10;65.20;;;;;;5054861;28;20436;-50
2023/10/14 11:50:58;;;;;;;9.88;2.17;;;21.10;65.90;;;;;;5054688;28;20091;-47
2023/10/14 11:53:29;;;;;;;11.20;2.60;;;21.10;65.80;;;;;;5054706;28;20427;-50
2023/10/14 11:55:58;;;;;;;8.40;2.03;;;21.00;65.90;;;;;;5053323;28;20044;-50
2023/10/14 11:58:31;;;;;;;11.88;2.53;;;21.00;65.70;;;;;;5054574;28;20036;-48
2023/10/14 12:00:57;;;;;;;8.85;2.05;;;21.00;65.60;;;;;;5054707;28;20036;-46
2023/10/14 12:03:27;;;;;;;14.82;2.60;;;21.00;65.70;;;;;;5054506;28;20556;-48
2023/10/14 12:05:57;;;;;;;7.50;2.28;;;21.00;65.50;;;;;;5054236;28;20450;-50
2023/10/14 12:08:28;;;;;;;9.85;2.45;;;21.00;65.40;;;;;;5054480;28;20033;-48
2023/10/14 12:10:54;;;;;;;8.93;2.63;;;21.00;64.70;;;;;;5053216;28;20040;-47
2023/10/14 12:13:20;;;;;;;18.33;2.60;;;21.00;65.20;;;;;;5047411;28;20105;-49
2023/10/14 12:15:47;;;;;;;11.85;2.35;;;21.00;65.20;;;;;;5047565;28;20108;-51
2023/10/14 12:18:15;;;;;;;12.07;2.42;;;21.10;65.10;;;;;;5050236;28;20385;-46
2023/10/14 12:20:46;;;;;;;10.77;2.58;;;21.10;65.20;;;;;;5050490;28;20143;-46
2023/10/14 12:23:18;;;;;;;12.43;2.95;;;21.20;66.50;;;;;;5050672;28;20087;-46
2023/10/14 12:25:48;;;;;;;18.17;3.20;;;21.20;67.10;;;;;;5049936;28;20065;-53
2023/10/14 12:28:25;;;;;;;15.88;3.15;;;21.30;68.10;;;;;;5050586;28;20037;-48
2023/10/14 12:31:03;;;;;;;14.63;2.92;;;21.30;68.70;;;;;;5050234;28;20029;-46
2023/10/14 12:33:32;;;;;;;17.05;3.20;;;21.30;70.80;;;;;;5053828;28;20121;-48
2023/10/14 12:35:59;;;;;;;;;;;21.30;71.20;;;;;;5053969;28;20032;-46
2023/10/14 12:38:27;;;;;;;11.88;2.58;;;21.30;67.80;;;;;;5053799;28;19909;-46
2023/10/14 12:40:53;;;;;;;12.63;2.85;;;21.20;69.10;;;;;;5053695;28;20035;-46
2023/10/14 12:43:28;;;;;;;17.05;3.70;;;21.10;66.60;;;;;;5054026;28;20566;-45
2023/10/14 12:46:12;;;;;;;14.35;3.40;;;21.10;63.60;;;;;;5053351;28;20083;-45
2023/10/14 12:48:43;;;;;;;19.08;3.20;;;21.00;62.50;;;;;;5053570;28;20488;-45
2023/10/14 12:51:17;;;;;;;13.82;2.58;;;21.00;63.30;;;;;;5053754;28;20374;-45
2023/10/14 12:53:47;;;;;;;13.10;2.92;;;21.00;64.30;;;;;;5053621;28;20021;-48
2023/10/14 12:56:14;;;;;;;;;;;21.00;65.40;;;;;;5053859;28;20075;-50
2023/10/14 12:58:43;;;;;;;13.00;2.97;;;21.10;64.70;;;;;;5053430;28;20390;-46
2023/10/14 13:01:22;;;;;;;12.95;3.10;;;21.10;63.80;;;;;;5053467;28;20025;-51
2023/10/14 13:03:52;;;;;;;16.67;2.90;;;21.10;63.90;;;;;;5076513;22;20048;-55
2023/10/14 13:06:23;;;;;;;25.50;5.70;;;21.10;59.10;;;;;;5052459;28;20055;-56
2023/10/14 13:08:52;;;;;;;83.22;17.67;;;21.00;60.90;;;;;;5053456;28;20044;-55
2023/10/14 13:11:19;;;;;;;148.40;31.52;;;21.00;59.50;;;;;;5053306;28;20504;-57
2023/10/14 13:13:52;;;;;;;150.55;32.78;;;21.00;59.40;;;;;;5053074;28;20071;-56
2023/10/14 13:16:23;;;;;;;140.63;31.02;;;21.00;58.60;;;;;;5052861;28;20037;-58
2023/10/14 13:18:50;;;;;;;113.63;25.13;;;20.90;58.80;;;;;;5053199;28;20112;-56
2023/10/14 13:21:21;;;;;;;150.50;35.13;;;20.90;58.50;;;;;;5051920;28;20025;-57
2023/10/14 13:23:47;;;;;;;161.18;37.20;;;20.90;58.50;;;;;;5052966;28;20063;-54
2023/10/14 13:26:15;;;;;;;157.57;33.53;;;20.90;56.80;;;;;;5052574;28;20039;-57
2023/10/14 13:28:45;;;;;;;122.72;29.13;;;21.00;56.00;;;;;;5052883;28;20025;-55
2023/10/14 13:31:12;;;;;;;102.53;21.13;;;20.90;57.80;;;;;;5053088;28;20424;-57
2023/10/14 13:33:47;;;;;;;65.90;15.13;;;20.90;54.70;;;;;;5052671;28;20025;-57
2023/10/14 13:36:14;;;;;;;59.78;13.00;;;20.90;56.10;;;;;;5051364;28;20052;-54